KLHB/LHB METAR and TAF weather

Enter ICAO airport designator
Station Type Date Time Source
KLHB METAR 2019/05/27 10:15 UTC NOAA

KLHB 271015Z AUTO 14005KT 10SM BKN019 BKN027 23/22 A2996 RMK AO2 T02250221


Station Type Date Time Source
KLHB Decoded METAR 2019/05/27 10:15 UTC NOAA

Hearne, Hearne Municipal Airport, TX, United States (KLHB) 30-52-18N 096-37-20W
May 27, 2019 - 06:15 AM EDT / 2019.05.27 1015 UTC
Wind: from the SE (140 degrees) at 6 MPH (5 KT):0
Visibility: 10 mile(s):0
Sky conditions: mostly cloudy
Temperature: 72.5 F (22.5 C)
Dew Point: 71.8 F (22.1 C)
Relative Humidity: 97%
Pressure (altimeter): 29.96 in. Hg (1014 hPa)
ob: KLHB 271015Z AUTO 14005KT 10SM BKN019 BKN027 23/22 A2996 RMK AO2 T02250221
cycle: 10

Station Type Date Time Source
KLHB TAF UTC NOAA

Error!

Example: see airport list